Time;durP1;ratioP1;P1;durP2;ratioP2;P2;SDS_P1;SDS_P2;PMS_P1;PMS_P2;Temp;Humidity;BMP_temperature;BMP_pressure;BME280_temperature;BME280_humidity;BME280_pressure;Samples;Min_cycle;Max_cycle;Signal;HPM_P1;HPM_P2
2023/05/26 00:00:00;;;;;;;9.80;8.90;;;19.90;99.90;;;;;;6278134;28;20307;-64
2023/05/26 00:03:04;;;;;;;9.10;8.30;;;19.90;99.90;;;;;;6278142;28;20312;-64
2023/05/26 00:06:10;;;;;;;10.30;9.30;;;19.90;99.90;;;;;;6277745;28;20521;-64
2023/05/26 00:09:14;;;;;;;8.73;7.83;;;19.90;99.90;;;;;;6277514;28;20316;-64
2023/05/26 00:12:20;;;;;;;9.20;8.40;;;19.90;99.90;;;;;;6277133;28;20424;-64
2023/05/26 00:15:23;;;;;;;9.23;8.40;;;19.90;99.90;;;;;;6277759;28;20278;-64
2023/05/26 00:18:27;;;;;;;8.77;7.97;;;19.90;99.90;;;;;;6277663;28;20341;-64
2023/05/26 00:21:30;;;;;;;10.80;8.63;;;19.90;99.90;;;;;;6277612;28;20690;-65
2023/05/26 00:24:35;;;;;;;10.67;8.07;;;19.80;99.90;;;;;;6279468;28;20239;-65
2023/05/26 00:27:39;;;;;;;8.20;7.40;;;19.80;99.90;;;;;;6292890;28;20544;-65
2023/05/26 00:30:42;;;;;;;9.10;8.30;;;19.80;99.90;;;;;;6287038;28;20305;-64
2023/05/26 00:33:46;;;;;;;9.03;8.13;;;19.80;99.90;;;;;;6277619;28;20223;-64
2023/05/26 00:36:49;;;;;;;8.83;8.00;;;19.70;99.90;;;;;;6267910;28;20246;-64
2023/05/26 00:39:52;;;;;;;9.60;8.50;;;19.70;99.90;;;;;;6277320;28;20239;-64
2023/05/26 00:42:56;;;;;;;9.23;8.43;;;19.70;99.90;;;;;;6276349;28;20238;-65
2023/05/26 00:46:00;;;;;;;10.80;8.40;;;19.60;99.90;;;;;;6277214;28;20234;-64
2023/05/26 00:49:03;;;;;;;9.03;8.30;;;19.60;99.90;;;;;;6277378;28;20235;-64
2023/05/26 00:52:07;;;;;;;9.50;8.60;;;19.60;99.90;;;;;;6277073;28;20318;-65
2023/05/26 00:55:11;;;;;;;9.27;8.47;;;19.70;99.90;;;;;;6276906;28;20244;-65
2023/05/26 00:58:16;;;;;;;10.07;9.07;;;19.70;99.90;;;;;;6276709;28;20231;-65
2023/05/26 01:01:19;;;;;;;8.93;8.10;;;19.70;99.90;;;;;;6276914;28;20556;-65
2023/05/26 01:04:23;;;;;;;10.17;9.20;;;19.80;99.90;;;;;;6276547;28;20699;-65
2023/05/26 01:07:26;;;;;;;13.00;9.03;;;19.80;99.90;;;;;;6276865;28;20224;-65
2023/05/26 01:10:31;;;;;;;9.60;8.63;;;19.70;99.90;;;;;;6276137;28;20242;-65
2023/05/26 01:13:48;;;;;;;8.70;7.90;;;19.70;99.90;;;;;;6276361;28;20231;-65
2023/05/26 01:16:56;;;;;;;9.33;8.43;;;19.70;99.90;;;;;;6276456;28;20232;-65
2023/05/26 01:20:14;;;;;;;8.90;8.17;;;19.70;99.90;;;;;;6276364;28;20247;-65
2023/05/26 01:23:38;;;;;;;9.77;8.87;;;19.60;99.90;;;;;;6276262;28;20613;-65
2023/05/26 01:27:04;;;;;;;9.27;8.23;;;19.60;99.90;;;;;;6276519;28;20228;-65
2023/05/26 01:30:11;;;;;;;9.93;8.93;;;19.60;99.90;;;;;;6276355;28;20235;-65
2023/05/26 01:33:14;;;;;;;9.83;8.33;;;19.70;99.90;;;;;;6275701;28;20679;-65
2023/05/26 01:36:17;;;;;;;9.93;9.03;;;19.70;99.90;;;;;;6276239;28;20227;-65
2023/05/26 01:39:21;;;;;;;9.70;8.80;;;19.70;99.90;;;;;;6271504;28;20301;-65
2023/05/26 01:42:28;;;;;;;9.00;8.03;;;19.60;99.90;;;;;;6275764;28;20559;-64
2023/05/26 01:45:41;;;;;;;9.93;8.93;;;19.60;99.90;;;;;;6276019;28;20680;-64
2023/05/26 01:48:47;;;;;;;11.20;9.00;;;19.50;99.90;;;;;;6275748;28;20236;-64
2023/05/26 01:51:55;;;;;;;9.50;8.60;;;19.50;99.90;;;;;;6275514;28;20781;-64
2023/05/26 01:55:02;;;;;;;8.73;7.90;;;19.60;99.90;;;;;;6275660;28;20231;-65
2023/05/26 01:58:06;;;;;;;9.33;8.43;;;19.50;99.90;;;;;;6275692;28;20345;-65
2023/05/26 02:01:11;;;;;;;9.63;8.80;;;19.50;99.90;;;;;;6275655;28;20238;-64
2023/05/26 02:04:14;;;;;;;10.13;9.17;;;19.50;99.90;;;;;;6275900;28;20227;-65
2023/05/26 02:07:19;;;;;;;13.03;9.20;;;19.50;99.90;;;;;;6275421;28;20223;-65
2023/05/26 02:10:22;;;;;;;9.37;8.60;;;19.50;99.90;;;;;;6275237;28;20236;-65
2023/05/26 02:13:25;;;;;;;11.10;10.00;;;19.50;99.90;;;;;;6275319;28;20806;-64
2023/05/26 02:16:32;;;;;;;9.60;8.70;;;19.50;99.90;;;;;;6277009;28;20242;-64
2023/05/26 02:19:36;;;;;;;9.50;8.57;;;19.50;99.90;;;;;;6276670;28;20258;-64
2023/05/26 02:22:39;;;;;;;10.57;9.40;;;19.40;99.90;;;;;;6275553;28;20227;-64
2023/05/26 02:25:43;;;;;;;9.40;8.60;;;19.40;99.90;;;;;;6275371;28;20310;-64
2023/05/26 02:28:46;;;;;;;9.87;8.60;;;19.40;99.90;;;;;;6274967;28;20231;-64
2023/05/26 02:31:51;;;;;;;9.13;8.30;;;19.40;99.90;;;;;;6274900;28;20231;-65
2023/05/26 02:34:54;;;;;;;10.60;9.50;;;19.40;99.90;;;;;;6274837;28;20223;-65
2023/05/26 02:37:57;;;;;;;8.80;8.00;;;19.30;99.90;;;;;;6274758;28;20253;-65
2023/05/26 02:41:00;;;;;;;10.93;9.30;;;19.20;99.90;;;;;;6274697;28;20231;-65
2023/05/26 02:44:04;;;;;;;12.23;9.40;;;19.20;99.90;;;;;;6274620;28;20223;-65
2023/05/26 02:47:09;;;;;;;9.53;8.63;;;19.20;99.90;;;;;;6274851;28;20224;-65
2023/05/26 02:50:13;;;;;;;9.27;8.57;;;19.10;99.90;;;;;;6274753;28;20232;-65
2023/05/26 02:53:18;;;;;;;8.70;7.90;;;19.10;99.90;;;;;;6274378;28;20298;-65
2023/05/26 02:56:22;;;;;;;9.20;8.33;;;19.20;99.90;;;;;;6274322;28;20214;-65
2023/05/26 02:59:25;;;;;;;9.67;8.87;;;19.20;99.90;;;;;;6274245;28;20234;-65
2023/05/26 03:02:30;;;;;;;10.10;9.00;;;19.10;99.90;;;;;;6274377;28;20203;-65
2023/05/26 03:05:33;;;;;;;9.43;8.63;;;19.10;99.90;;;;;;6280007;28;20264;-65
2023/05/26 03:08:37;;;;;;;12.03;8.70;;;19.00;99.90;;;;;;6265202;28;20227;-64
2023/05/26 03:11:41;;;;;;;10.27;9.37;;;18.90;99.90;;;;;;6282887;28;20227;-65
2023/05/26 03:14:44;;;;;;;10.70;9.60;;;18.90;99.90;;;;;;6282456;28;20565;-65
2023/05/26 03:17:50;;;;;;;10.90;8.77;;;18.90;99.90;;;;;;6282369;28;20893;-65
2023/05/26 03:20:54;;;;;;;9.73;8.83;;;18.90;99.90;;;;;;6282121;28;20246;-65
2023/05/26 03:23:57;;;;;;;9.07;8.30;;;18.90;99.90;;;;;;6282622;28;20306;-65
2023/05/26 03:27:01;;;;;;;9.23;8.43;;;18.80;99.90;;;;;;6282334;28;20257;-65
2023/05/26 03:30:05;;;;;;;10.30;9.30;;;18.80;99.90;;;;;;6282532;28;20238;-65
2023/05/26 03:33:09;;;;;;;9.47;8.67;;;18.80;99.90;;;;;;6282104;28;20235;-65
2023/05/26 03:36:13;;;;;;;9.70;8.70;;;18.70;99.90;;;;;;6282541;28;20237;-65
2023/05/26 03:39:17;;;;;;;9.60;8.57;;;18.70;99.90;;;;;;6282157;28;20242;-65
2023/05/26 03:42:20;;;;;;;12.53;8.30;;;18.70;99.90;;;;;;6282722;28;20344;-65
2023/05/26 03:45:23;;;;;;;9.37;8.40;;;18.60;99.90;;;;;;6282443;28;20227;-65
2023/05/26 03:48:28;;;;;;;10.80;9.70;;;18.60;99.90;;;;;;6278273;28;20636;-65
2023/05/26 03:51:31;;;;;;;10.43;9.40;;;18.60;99.90;;;;;;6282686;28;20235;-65
2023/05/26 03:54:35;;;;;;;10.30;9.17;;;18.50;99.90;;;;;;6282564;28;20473;-65
2023/05/26 03:57:38;;;;;;;10.03;9.03;;;18.50;99.90;;;;;;6281709;28;20253;-65
2023/05/26 04:00:41;;;;;;;9.50;8.53;;;18.50;99.90;;;;;;6282004;28;20473;-64
2023/05/26 04:03:46;;;;;;;9.60;8.70;;;18.50;99.90;;;;;;6282115;28;20545;-65
2023/05/26 04:06:52;;;;;;;9.40;8.50;;;18.50;99.90;;;;;;6285093;28;20231;-65
2023/05/26 04:09:55;;;;;;;9.80;9.00;;;18.60;99.90;;;;;;6282398;28;20232;-65
2023/05/26 04:12:58;;;;;;;10.40;8.90;;;18.60;99.90;;;;;;6281796;28;20238;-64
2023/05/26 04:16:01;;;;;;;10.23;9.20;;;18.60;99.90;;;;;;6279561;28;20231;-65
2023/05/26 04:19:06;;;;;;;10.10;9.07;;;18.60;99.90;;;;;;6277889;28;20254;-65
2023/05/26 04:22:11;;;;;;;10.17;9.17;;;18.70;99.90;;;;;;6277940;28;20243;-65
2023/05/26 04:25:14;;;;;;;12.50;8.80;;;18.70;99.90;;;;;;6277898;28;20687;-65
2023/05/26 04:28:17;;;;;;;10.03;8.23;;;18.60;99.90;;;;;;6277461;28;20228;-65
2023/05/26 04:31:20;;;;;;;9.77;8.97;;;18.70;99.90;;;;;;6277553;28;20474;-65
2023/05/26 04:34:25;;;;;;;13.43;9.07;;;18.80;99.90;;;;;;6277821;28;20231;-65
2023/05/26 04:37:32;;;;;;;10.07;9.07;;;19.00;99.90;;;;;;6277352;28;20679;-65
2023/05/26 04:40:36;;;;;;;9.80;8.90;;;19.30;99.90;;;;;;6277640;28;20242;-65
2023/05/26 04:43:40;;;;;;;15.97;8.93;;;19.40;99.90;;;;;;6277818;28;20249;-65
2023/05/26 04:46:45;;;;;;;11.40;9.13;;;19.40;99.90;;;;;;6278089;28;20227;-65
2023/05/26 04:49:51;;;;;;;9.67;8.77;;;19.50;99.90;;;;;;6277100;28;20312;-65
2023/05/26 04:52:54;;;;;;;11.37;9.13;;;19.50;99.90;;;;;;6277401;28;20556;-65
2023/05/26 04:56:01;;;;;;;10.07;8.97;;;19.60;99.90;;;;;;6276998;28;20266;-65
2023/05/26 04:59:07;;;;;;;10.20;8.43;;;19.70;99.90;;;;;;6277124;28;20232;-65
2023/05/26 05:02:10;;;;;;;12.77;9.80;;;19.90;99.90;;;;;;6276283;28;20234;-65
2023/05/26 05:05:18;;;;;;;10.10;9.10;;;20.00;99.90;;;;;;6276642;28;20227;-65
2023/05/26 05:08:21;;;;;;;10.97;8.47;;;20.10;99.90;;;;;;6276485;28;20281;-65
2023/05/26 05:11:27;;;;;;;10.33;9.33;;;20.20;99.90;;;;;;6276488;28;20580;-65
2023/05/26 05:14:30;;;;;;;10.53;9.47;;;20.30;99.90;;;;;;6277035;28;20207;-65
2023/05/26 05:17:33;;;;;;;9.50;8.60;;;20.40;99.90;;;;;;6276279;28;20513;-65
2023/05/26 05:20:38;;;;;;;12.73;10.20;;;20.40;99.90;;;;;;6276395;28;20314;-64
2023/05/26 05:23:41;;;;;;;9.77;8.80;;;20.50;99.90;;;;;;6276190;28;20591;-65
2023/05/26 05:26:44;;;;;;;10.00;9.00;;;20.60;99.90;;;;;;6276186;28;20237;-65
2023/05/26 05:29:47;;;;;;;9.70;8.90;;;20.70;99.90;;;;;;6276269;28;20538;-65
2023/05/26 05:32:53;;;;;;;9.43;8.43;;;20.90;99.90;;;;;;6276397;28;20614;-64
2023/05/26 05:35:58;;;;;;;9.77;8.80;;;21.00;99.90;;;;;;6276031;28;20227;-65
2023/05/26 05:39:02;;;;;;;10.40;9.00;;;21.10;99.90;;;;;;6275710;28;20235;-65
2023/05/26 05:42:08;;;;;;;10.13;9.00;;;21.20;99.90;;;;;;6275827;28;20326;-65
2023/05/26 05:45:12;;;;;;;9.00;8.20;;;21.30;99.70;;;;;;6276100;28;20228;-65
2023/05/26 05:48:15;;;;;;;8.20;7.40;;;21.40;97.80;;;;;;6276385;28;20223;-65
2023/05/26 05:51:25;;;;;;;9.80;7.97;;;21.50;97.70;;;;;;6276117;28;20231;-66
2023/05/26 05:54:29;;;;;;;8.30;7.50;;;21.70;97.30;;;;;;6276080;28;20243;-65
2023/05/26 05:57:32;;;;;;;8.57;7.77;;;22.10;97.00;;;;;;6278178;28;20326;-65
2023/05/26 06:00:35;;;;;;;9.10;8.20;;;22.50;95.60;;;;;;6279516;28;20232;-66
2023/05/26 06:03:38;;;;;;;8.13;7.40;;;22.80;95.40;;;;;;6274932;28;20563;-66
2023/05/26 06:06:43;;;;;;;8.00;7.40;;;23.40;94.90;;;;;;6274797;28;20215;-66
2023/05/26 06:09:46;;;;;;;9.30;8.40;;;24.00;93.80;;;;;;6274961;28;20306;-65
2023/05/26 06:12:49;;;;;;;9.13;7.97;;;24.60;92.80;;;;;;6275576;28;20216;-65
2023/05/26 06:15:52;;;;;;;8.93;7.77;;;25.20;91.70;;;;;;6274072;28;20235;-66
2023/05/26 06:18:56;;;;;;;12.10;8.43;;;25.90;89.90;;;;;;6274325;28;20223;-66
2023/05/26 06:22:00;;;;;;;8.90;8.00;;;26.60;87.20;;;;;;6274796;28;20219;-65
2023/05/26 06:25:04;;;;;;;9.83;8.70;;;26.90;85.80;;;;;;6275151;28;20245;-66
2023/05/26 06:28:08;;;;;;;8.60;7.80;;;26.90;83.00;;;;;;6274240;28;20380;-66
2023/05/26 06:31:11;;;;;;;8.60;7.80;;;27.00;81.90;;;;;;6274144;28;20234;-66
2023/05/26 06:34:14;;;;;;;10.20;7.43;;;27.20;80.00;;;;;;6274697;28;20736;-66
2023/05/26 06:37:19;;;;;;;8.57;7.77;;;28.20;77.70;;;;;;6274306;28;20248;-66
2023/05/26 06:40:22;;;;;;;8.60;7.87;;;28.90;73.70;;;;;;6274021;28;20231;-66
2023/05/26 06:43:25;;;;;;;9.00;8.20;;;28.90;71.10;;;;;;6274599;28;20223;-65
2023/05/26 06:46:28;;;;;;;8.60;7.70;;;29.60;67.20;;;;;;6274736;28;20223;-65
2023/05/26 06:49:32;;;;;;;7.90;7.20;;;30.10;64.80;;;;;;6274344;28;20242;-65
2023/05/26 06:52:36;;;;;;;7.57;6.87;;;30.90;63.50;;;;;;6273901;28;20215;-65
2023/05/26 06:55:40;;;;;;;8.37;7.57;;;30.20;60.70;;;;;;6274374;28;20679;-65
2023/05/26 06:58:43;;;;;;;8.43;7.70;;;30.00;61.30;;;;;;6273617;28;20245;-67
2023/05/26 07:01:46;;;;;;;7.10;6.50;;;29.60;59.50;;;;;;6273681;28;20226;-67
2023/05/26 07:04:50;;;;;;;10.55;6.85;;;30.60;58.50;;;;;;6273314;28;20227;-67
2023/05/26 07:07:55;;;;;;;7.32;6.60;;;31.80;53.20;;;;;;6273206;28;20507;-67
2023/05/26 07:10:58;;;;;;;6.15;5.68;;;32.80;53.60;;;;;;6273101;28;20223;-67
2023/05/26 07:14:01;;;;;;;6.30;5.60;;;33.90;52.30;;;;;;6273512;28;20226;-67
2023/05/26 07:17:05;;;;;;;6.80;5.78;;;34.70;44.40;;;;;;6274299;28;20242;-67
2023/05/26 07:20:09;;;;;;;6.88;6.30;;;34.70;41.50;;;;;;6275947;28;20300;-67
2023/05/26 07:23:14;;;;;;;5.22;4.82;;;35.10;41.60;;;;;;6273680;28;20230;-67
2023/05/26 07:26:17;;;;;;;6.50;6.00;;;36.00;38.50;;;;;;6274578;28;20281;-65
2023/05/26 07:29:20;;;;;;;6.57;6.07;;;36.40;35.90;;;;;;6274449;28;20215;-65
2023/05/26 07:32:23;;;;;;;6.28;5.53;;;36.80;33.70;;;;;;6274430;28;20623;-65
2023/05/26 07:35:26;;;;;;;5.93;5.43;;;37.20;32.60;;;;;;6273997;28;20210;-65
2023/05/26 07:38:31;;;;;;;5.70;5.20;;;36.60;31.60;;;;;;6273909;28;20199;-65
2023/05/26 07:41:38;;;;;;;7.07;6.00;;;37.40;31.10;;;;;;6274005;28;20234;-65
2023/05/26 07:44:42;;;;;;;5.75;5.35;;;37.50;30.40;;;;;;6274394;28;20222;-65
2023/05/26 07:47:45;;;;;;;5.32;4.88;;;38.20;31.60;;;;;;6274424;28;20234;-65
2023/05/26 07:50:48;;;;;;;5.93;5.47;;;39.20;30.90;;;;;;6280676;28;20302;-64
2023/05/26 07:53:53;;;;;;;6.38;5.82;;;39.60;29.70;;;;;;6280478;28;20314;-64
2023/05/26 07:56:56;;;;;;;6.20;5.60;;;39.80;28.80;;;;;;6278488;28;20258;-65
2023/05/26 07:59:59;;;;;;;5.72;5.20;;;39.40;29.40;;;;;;6278941;28;20237;-65
2023/05/26 08:03:02;;;;;;;5.50;5.03;;;39.10;29.30;;;;;;6278607;28;20743;-65
2023/05/26 08:06:06;;;;;;;6.05;5.60;;;38.30;29.10;;;;;;6279072;28;20229;-65
2023/05/26 08:09:28;;;;;;;6.85;6.25;;;37.50;29.60;;;;;;6278764;28;20298;-67
2023/05/26 08:12:32;;;;;;;7.30;5.85;;;36.70;30.00;;;;;;6277144;28;20231;-67
2023/05/26 08:15:35;;;;;;;6.50;6.00;;;35.80;30.50;;;;;;6279153;28;20309;-66
2023/05/26 08:18:38;;;;;;;7.45;5.82;;;34.80;31.50;;;;;;6278960;28;20237;-66
2023/05/26 08:21:41;;;;;;;8.98;5.70;;;33.50;33.00;;;;;;6278744;28;20241;-67
2023/05/26 08:24:46;;;;;;;7.15;6.43;;;32.80;34.90;;;;;;6278096;28;20666;-67
2023/05/26 08:27:49;;;;;;;7.00;6.50;;;32.30;35.80;;;;;;6277933;28;20309;-67
2023/05/26 08:30:52;;;;;;;6.50;6.00;;;31.90;36.50;;;;;;6277730;28;20272;-65
2023/05/26 08:33:56;;;;;;;7.20;6.50;;;31.60;37.10;;;;;;6252595;28;20239;-66
2023/05/26 08:37:02;;;;;;;6.93;6.43;;;31.30;37.90;;;;;;6252402;28;20569;-66
2023/05/26 08:40:09;;;;;;;7.07;6.50;;;31.20;38.00;;;;;;6252516;28;20227;-66
2023/05/26 08:43:16;;;;;;;7.70;5.95;;;31.00;38.20;;;;;;6252647;28;20246;-66
2023/05/26 08:46:20;;;;;;;6.38;5.88;;;30.80;38.70;;;;;;6272838;28;20231;-66
2023/05/26 08:49:24;;;;;;;7.70;7.00;;;30.50;39.60;;;;;;6276235;28;20689;-67
2023/05/26 08:52:28;;;;;;;7.43;6.30;;;30.20;39.30;;;;;;6276660;28;20570;-66
2023/05/26 08:55:33;;;;;;;6.95;6.35;;;30.10;41.40;;;;;;6274083;28;20237;-67
2023/05/26 08:58:39;;;;;;;6.38;5.88;;;30.00;39.90;;;;;;6277178;28;20306;-67
2023/05/26 09:01:42;;;;;;;7.32;6.53;;;29.90;40.90;;;;;;6276347;28;20250;-66
2023/05/26 09:04:46;;;;;;;7.38;6.68;;;29.80;40.00;;;;;;6276568;28;20230;-66
2023/05/26 09:07:49;;;;;;;6.80;6.10;;;29.60;40.60;;;;;;6271450;28;20222;-67
2023/05/26 09:10:54;;;;;;;6.23;5.73;;;29.40;41.70;;;;;;6276159;28;20227;-67
2023/05/26 09:13:58;;;;;;;9.73;7.33;;;29.40;41.50;;;;;;6275841;28;20226;-66
2023/05/26 09:17:02;;;;;;;7.40;6.70;;;28.90;41.60;;;;;;6276242;28;20233;-66
2023/05/26 09:20:07;;;;;;;7.47;6.87;;;28.50;42.80;;;;;;6275593;28;20237;-65
2023/05/26 09:23:10;;;;;;;7.30;6.70;;;28.40;43.30;;;;;;6276195;28;20227;-64
2023/05/26 09:26:17;;;;;;;7.40;6.70;;;28.70;42.10;;;;;;6275802;28;20253;-65
2023/05/26 09:29:20;;;;;;;6.83;6.23;;;28.90;42.10;;;;;;6276662;28;20223;-65
2023/05/26 09:32:26;;;;;;;7.60;6.93;;;29.00;42.80;;;;;;6276268;28;20221;-66
2023/05/26 09:35:35;;;;;;;6.80;6.20;;;29.20;41.00;;;;;;6276396;28;20241;-65
2023/05/26 09:38:38;;;;;;;6.13;5.53;;;29.30;41.20;;;;;;6276931;28;20655;-67
2023/05/26 09:41:44;;;;;;;7.10;6.40;;;29.50;40.90;;;;;;6276265;28;20234;-66
2023/05/26 09:44:50;;;;;;;8.23;5.57;;;29.80;40.50;;;;;;6275796;28;20246;-66
2023/05/26 09:47:56;;;;;;;8.13;6.70;;;30.00;39.60;;;;;;6275918;28;20226;-65
2023/05/26 09:50:59;;;;;;;8.20;5.97;;;30.20;39.50;;;;;;6275383;28;20246;-68
2023/05/26 09:54:03;;;;;;;5.97;5.47;;;30.30;38.20;;;;;;6275581;28;20544;-68
2023/05/26 09:57:10;;;;;;;6.10;5.60;;;30.50;38.50;;;;;;6275633;28;20260;-67
2023/05/26 10:00:18;;;;;;;7.03;6.53;;;30.60;37.50;;;;;;6275222;28;20238;-66
2023/05/26 10:03:22;;;;;;;7.55;6.70;;;30.50;37.30;;;;;;6275468;28;20226;-68
2023/05/26 10:06:25;;;;;;;6.07;5.50;;;30.10;37.90;;;;;;6275122;28;20308;-67
2023/05/26 10:09:30;;;;;;;7.40;6.70;;;30.00;39.40;;;;;;6270782;28;20700;-67
2023/05/26 10:12:37;;;;;;;7.47;6.77;;;29.90;39.70;;;;;;6274687;28;20316;-66
2023/05/26 10:15:41;;;;;;;6.70;6.10;;;29.80;39.70;;;;;;6274301;28;20227;-66
2023/05/26 10:18:44;;;;;;;7.35;6.65;;;30.10;39.80;;;;;;6274933;28;20260;-67
2023/05/26 10:21:52;;;;;;;8.20;7.40;;;30.40;39.10;;;;;;6275155;28;20667;-67
2023/05/26 10:25:01;;;;;;;7.22;6.63;;;30.50;38.50;;;;;;6275141;28;20521;-67
2023/05/26 10:28:14;;;;;;;7.18;6.57;;;30.50;38.30;;;;;;6274698;28;20637;-67
2023/05/26 10:31:29;;;;;;;6.25;5.65;;;30.10;37.70;;;;;;6274625;28;20235;-67
2023/05/26 10:34:42;;;;;;;7.83;7.10;;;30.00;38.00;;;;;;6273010;28;20432;-66
2023/05/26 10:37:49;;;;;;;7.30;6.60;;;29.40;38.80;;;;;;6273883;28;20230;-65
2023/05/26 10:40:52;;;;;;;6.77;6.10;;;29.30;38.40;;;;;;6273884;28;20231;-65
2023/05/26 10:43:57;;;;;;;7.10;6.53;;;29.20;38.60;;;;;;6274089;28;20240;-65
2023/05/26 10:47:04;;;;;;;6.90;6.30;;;28.90;40.20;;;;;;6274532;28;20235;-67
2023/05/26 10:50:08;;;;;;;7.73;6.50;;;29.00;41.50;;;;;;6273884;28;20254;-67
2023/05/26 10:53:21;;;;;;;10.57;7.10;;;29.00;41.90;;;;;;6274383;28;20304;-67
2023/05/26 10:56:26;;;;;;;7.00;5.83;;;29.30;42.00;;;;;;6273726;28;20221;-65
2023/05/26 10:59:33;;;;;;;7.33;6.77;;;29.60;41.30;;;;;;6269655;28;20223;-68
2023/05/26 11:02:38;;;;;;;9.20;6.70;;;29.50;40.60;;;;;;6274178;28;20331;-68
2023/05/26 11:05:41;;;;;;;7.60;6.90;;;29.40;40.70;;;;;;6274897;28;20284;-67
2023/05/26 11:08:46;;;;;;;7.40;6.73;;;29.40;40.80;;;;;;6273927;28;20233;-67
2023/05/26 11:11:51;;;;;;;7.13;6.43;;;29.40;40.70;;;;;;6273894;28;20233;-67
2023/05/26 11:14:56;;;;;;;7.90;6.30;;;29.50;40.80;;;;;;6274509;28;20316;-67
2023/05/26 11:18:03;;;;;;;8.03;7.30;;;29.60;40.30;;;;;;6273782;28;20238;-67
2023/05/26 11:21:07;;;;;;;7.73;6.83;;;29.10;41.20;;;;;;6274018;28;20296;-65
2023/05/26 11:24:10;;;;;;;7.80;7.13;;;29.20;41.50;;;;;;6273664;28;20242;-65
2023/05/26 11:27:13;;;;;;;8.10;7.40;;;29.30;41.60;;;;;;6277637;28;20226;-65
2023/05/26 11:30:19;;;;;;;8.40;7.70;;;29.40;41.90;;;;;;6279198;28;20230;-65
2023/05/26 11:33:22;;;;;;;8.47;7.77;;;29.10;43.20;;;;;;6279023;28;20997;-65
2023/05/26 11:36:26;;;;;;;7.57;6.87;;;29.00;43.50;;;;;;6278956;28;20574;-65
2023/05/26 11:39:32;;;;;;;9.13;7.20;;;29.00;43.70;;;;;;6278505;28;20566;-64
2023/05/26 11:42:35;;;;;;;7.70;7.10;;;29.00;44.10;;;;;;6278563;28;20236;-65
2023/05/26 11:45:40;;;;;;;8.13;7.43;;;29.10;44.90;;;;;;6278514;28;20223;-66
2023/05/26 11:48:44;;;;;;;8.27;7.17;;;29.30;44.20;;;;;;6277997;28;20239;-66
2023/05/26 11:51:48;;;;;;;7.97;7.27;;;29.20;43.40;;;;;;6278191;28;20245;-68
2023/05/26 11:54:51;;;;;;;8.73;8.03;;;29.20;43.70;;;;;;6278412;28;20626;-67
2023/05/26 11:57:54;;;;;;;8.13;7.47;;;29.10;42.50;;;;;;6278061;28;20317;-65
2023/05/26 12:01:00;;;;;;;8.00;7.30;;;29.10;43.30;;;;;;6277456;28;20226;-65
2023/05/26 12:04:05;;;;;;;6.87;6.33;;;29.30;42.50;;;;;;6275652;28;20242;-64
2023/05/26 12:07:08;;;;;;;8.43;7.47;;;29.30;42.50;;;;;;6277468;28;20572;-64
2023/05/26 12:10:12;;;;;;;8.23;7.30;;;29.30;41.80;;;;;;6277542;28;20260;-63
2023/05/26 12:13:15;;;;;;;8.20;7.50;;;29.10;43.50;;;;;;6277568;28;20233;-63
2023/05/26 12:16:24;;;;;;;7.73;7.03;;;29.30;43.70;;;;;;6277676;28;20724;-64
2023/05/26 12:19:30;;;;;;;7.30;6.70;;;29.70;42.80;;;;;;6277128;28;20238;-64
2023/05/26 12:22:33;;;;;;;8.27;7.13;;;29.50;42.60;;;;;;6277592;28;20316;-64
2023/05/26 12:25:36;;;;;;;8.27;7.30;;;29.20;42.90;;;;;;6277483;28;20601;-64
2023/05/26 12:28:40;;;;;;;7.53;6.83;;;29.30;43.80;;;;;;6277220;28;20725;-64
2023/05/26 12:31:48;;;;;;;7.87;7.17;;;28.80;43.10;;;;;;6277098;28;20272;-64
2023/05/26 12:34:51;;;;;;;9.67;7.50;;;29.00;44.30;;;;;;6277205;28;20231;-64
2023/05/26 12:37:54;;;;;;;7.87;7.17;;;28.60;44.10;;;;;;6275601;28;20306;-63
2023/05/26 12:40:58;;;;;;;7.43;6.83;;;28.20;44.40;;;;;;6277270;28;20227;-64
2023/05/26 12:44:02;;;;;;;7.57;6.90;;;27.90;45.70;;;;;;6276644;28;20227;-64
2023/05/26 12:47:06;;;;;;;7.50;6.90;;;28.10;45.20;;;;;;6277193;28;20223;-63
2023/05/26 12:50:11;;;;;;;7.43;6.73;;;28.00;44.80;;;;;;6276388;28;20321;-64
2023/05/26 12:53:14;;;;;;;7.20;6.50;;;27.50;45.90;;;;;;6277232;28;20218;-64
2023/05/26 12:56:18;;;;;;;7.43;6.73;;;27.40;46.20;;;;;;6276822;28;20276;-64
2023/05/26 12:59:21;;;;;;;11.33;7.43;;;27.20;46.40;;;;;;6276577;28;20675;-64
2023/05/26 13:02:26;;;;;;;8.03;7.23;;;27.40;46.30;;;;;;6276020;28;20222;-64
2023/05/26 13:05:29;;;;;;;7.73;7.10;;;27.40;46.40;;;;;;6272206;28;20623;-64
2023/05/26 13:08:33;;;;;;;8.80;7.90;;;27.20;45.80;;;;;;6266156;28;20195;-64
2023/05/26 13:11:36;;;;;;;7.77;7.07;;;26.70;45.80;;;;;;6275209;28;20242;-65
2023/05/26 13:14:39;;;;;;;8.10;7.30;;;26.90;46.30;;;;;;6275541;28;20537;-65
2023/05/26 13:17:44;;;;;;;7.10;6.50;;;27.10;46.00;;;;;;6276017;28;20241;-65
2023/05/26 13:20:48;;;;;;;8.97;8.07;;;27.10;45.80;;;;;;6275383;28;20304;-65
2023/05/26 13:23:51;;;;;;;8.47;7.47;;;27.20;45.70;;;;;;6276901;28;20237;-65
2023/05/26 13:26:55;;;;;;;8.07;7.47;;;27.10;46.10;;;;;;6276717;28;20230;-65
2023/05/26 13:29:58;;;;;;;11.33;6.90;;;27.00;45.50;;;;;;6275866;28;20305;-65
2023/05/26 13:33:04;;;;;;;10.17;9.37;;;27.00;46.10;;;;;;6274812;28;20241;-65
2023/05/26 13:36:08;;;;;;;8.20;7.50;;;27.10;45.80;;;;;;6277727;28;20361;-65
2023/05/26 13:39:12;;;;;;;7.30;6.47;;;27.20;45.90;;;;;;6275823;28;20249;-65
2023/05/26 13:42:15;;;;;;;8.40;7.60;;;27.40;46.00;;;;;;6275438;28;20633;-65
2023/05/26 13:45:18;;;;;;;8.07;7.33;;;27.60;45.20;;;;;;6271236;28;20242;-64
2023/05/26 13:48:23;;;;;;;7.73;7.03;;;27.60;44.90;;;;;;6275419;28;20225;-64
2023/05/26 13:51:27;;;;;;;8.27;7.53;;;27.70;45.10;;;;;;6275673;28;20239;-64
2023/05/26 13:54:30;;;;;;;7.87;7.00;;;27.90;44.60;;;;;;6274915;28;20313;-64
2023/05/26 13:57:33;;;;;;;7.93;7.23;;;27.90;44.60;;;;;;6275261;28;20229;-65
2023/05/26 14:00:36;;;;;;;8.00;6.93;;;27.90;44.70;;;;;;6275286;28;20606;-64
2023/05/26 14:03:41;;;;;;;6.77;6.17;;;28.00;44.50;;;;;;6275304;28;20245;-66
2023/05/26 14:06:46;;;;;;;8.77;7.97;;;27.90;43.70;;;;;;6274622;28;20223;-64
2023/05/26 14:09:49;;;;;;;8.73;7.83;;;27.80;44.20;;;;;;6267847;28;20234;-65
2023/05/26 14:12:52;;;;;;;7.20;6.67;;;27.50;44.40;;;;;;6275132;28;20231;-66
2023/05/26 14:15:56;;;;;;;8.37;7.53;;;27.50;45.10;;;;;;6275231;28;20231;-65
2023/05/26 14:19:01;;;;;;;8.90;8.10;;;27.50;44.70;;;;;;6274836;28;20223;-65
2023/05/26 14:22:07;;;;;;;8.10;7.30;;;27.50;45.00;;;;;;6274651;28;20695;-64
2023/05/26 14:25:21;;;;;;;7.60;7.00;;;27.50;44.70;;;;;;6273234;28;20234;-63
2023/05/26 14:28:25;;;;;;;9.50;8.53;;;27.40;44.50;;;;;;6274256;28;20551;-64
2023/05/26 14:31:28;;;;;;;8.23;7.50;;;27.10;45.00;;;;;;6274635;28;20223;-63
2023/05/26 14:34:33;;;;;;;8.10;7.03;;;27.10;45.50;;;;;;6271150;28;20249;-63
2023/05/26 14:37:36;;;;;;;9.47;8.50;;;27.10;45.40;;;;;;6273727;28;20215;-63
2023/05/26 14:40:39;;;;;;;8.50;7.70;;;27.00;45.10;;;;;;6273950;28;20226;-64
2023/05/26 14:43:43;;;;;;;8.07;7.37;;;27.00;45.20;;;;;;6274212;28;20231;-63
2023/05/26 14:46:46;;;;;;;8.50;7.70;;;27.00;45.30;;;;;;6273887;28;20219;-63
2023/05/26 14:49:50;;;;;;;8.23;7.50;;;27.00;45.80;;;;;;6273648;28;20227;-63
2023/05/26 14:52:53;;;;;;;7.97;7.27;;;27.20;45.70;;;;;;6274164;28;20215;-64
2023/05/26 14:55:58;;;;;;;7.90;7.20;;;27.30;45.00;;;;;;6273982;28;20215;-66
2023/05/26 14:59:02;;;;;;;8.10;7.30;;;27.20;44.50;;;;;;6271864;28;20246;-64
2023/05/26 15:02:06;;;;;;;8.07;7.20;;;27.40;45.30;;;;;;6272770;28;20251;-66
2023/05/26 15:05:11;;;;;;;8.70;7.90;;;27.60;45.70;;;;;;6271980;28;20233;-65
2023/05/26 15:08:14;;;;;;;7.80;7.10;;;27.60;44.70;;;;;;6274700;28;20280;-66
2023/05/26 15:11:17;;;;;;;8.30;7.60;;;27.60;45.50;;;;;;6273486;28;20237;-66
2023/05/26 15:14:21;;;;;;;9.23;7.60;;;27.50;45.90;;;;;;6272912;28;20237;-65
2023/05/26 15:17:24;;;;;;;9.27;7.87;;;27.50;45.90;;;;;;6274242;28;20230;-64
2023/05/26 15:20:30;;;;;;;9.13;8.23;;;27.60;46.00;;;;;;6273099;28;20582;-64
2023/05/26 15:23:33;;;;;;;8.17;7.50;;;27.70;46.20;;;;;;6274024;28;20230;-64
2023/05/26 15:26:36;;;;;;;8.43;7.73;;;27.80;46.60;;;;;;6273941;28;20203;-64
2023/05/26 15:29:41;;;;;;;8.70;8.00;;;27.70;46.10;;;;;;6273819;28;20229;-64
2023/05/26 15:32:44;;;;;;;10.23;7.30;;;27.70;46.80;;;;;;6274149;28;20238;-64
2023/05/26 15:35:49;;;;;;;8.30;7.50;;;27.40;47.00;;;;;;6280509;28;20298;-63
2023/05/26 15:38:53;;;;;;;7.37;6.77;;;27.10;47.00;;;;;;6279184;28;20292;-63
2023/05/26 15:41:56;;;;;;;8.40;7.60;;;27.10;48.00;;;;;;6274393;28;20602;-64
2023/05/26 15:45:04;;;;;;;8.00;7.20;;;27.20;50.40;;;;;;6274646;28;20239;-65
2023/05/26 15:48:07;;;;;;;10.10;8.40;;;27.30;50.20;;;;;;6274407;28;20320;-65
2023/05/26 15:51:12;;;;;;;9.20;8.40;;;27.50;53.00;;;;;;6273710;28;20235;-64
2023/05/26 15:54:15;;;;;;;9.97;8.20;;;27.60;50.70;;;;;;6274210;28;20582;-65
2023/05/26 15:57:18;;;;;;;8.33;7.63;;;27.70;55.40;;;;;;6273587;28;20674;-66